createdAt,value
2022-08-24T00:01:16.772Z,97408.75
2022-08-24T00:03:47.420Z,97391.81
2022-08-24T00:06:21.551Z,97366.41
2022-08-24T00:08:54.432Z,97360.72
2022-08-24T00:11:22.807Z,97351.59
2022-08-24T00:13:51.723Z,97343.28
2022-08-24T00:16:20.193Z,97328.94
2022-08-24T00:18:50.898Z,97318.88
2022-08-24T00:21:20.028Z,97295.78
2022-08-24T00:23:49.559Z,97289.25
2022-08-24T00:26:19.641Z,97286.13
2022-08-24T00:28:57.556Z,97275.06
2022-08-24T00:31:25.598Z,97266.44
2022-08-24T00:33:54.998Z,97267.44
2022-08-24T00:36:23.053Z,97249.84
2022-08-24T00:38:50.986Z,97244.81
2022-08-24T00:41:19.520Z,97244.16
2022-08-24T00:43:55.496Z,97228.03
2022-08-24T00:46:27.900Z,97218.94
2022-08-24T00:49:03.816Z,97205.44
2022-08-24T00:51:37.631Z,97197.97
2022-08-24T00:54:10.194Z,97190.47
2022-08-24T00:56:39.879Z,97186.25
2022-08-24T00:59:12.180Z,97171.94
2022-08-24T01:01:42.939Z,97158.44
2022-08-24T01:04:19.211Z,97151.09
2022-08-24T01:06:49.856Z,97136.59
2022-08-24T01:09:18.396Z,97137.59
2022-08-24T01:11:47.442Z,97130.13
2022-08-24T01:14:15.602Z,97125.84
2022-08-24T01:17:01.263Z,97121.00
2022-08-24T01:19:38.235Z,97112.53
2022-08-24T01:22:24.451Z,97094.66
2022-08-24T01:24:56.662Z,97081.34
2022-08-24T01:27:27.748Z,97069.63
2022-08-24T01:29:58.442Z,97053.69
2022-08-24T01:32:28.380Z,97036.78
2022-08-24T01:34:57.630Z,97026.06
2022-08-24T01:37:25.766Z,97004.13
2022-08-24T01:39:57.247Z,97003.47
2022-08-24T01:42:29.818Z,96987.25
2022-08-24T01:44:57.713Z,96990.81
2022-08-24T01:47:25.605Z,96981.53
2022-08-24T01:49:53.507Z,96975.88
2022-08-24T01:52:29.718Z,96958.16
2022-08-24T01:55:07.112Z,96940.47
2022-08-24T01:57:35.431Z,96934.59
2022-08-24T02:00:05.495Z,96922.09
2022-08-24T02:02:42.335Z,96917.22
2022-08-24T02:05:14.624Z,96906.19
2022-08-24T02:07:45.862Z,96899.53
2022-08-24T02:10:17.922Z,96886.84
2022-08-24T02:12:57.622Z,96880.22
2022-08-24T02:15:29.300Z,96874.38
2022-08-24T02:17:57.669Z,96873.72
2022-08-24T02:20:27.112Z,96860.25
2022-08-24T02:22:56.032Z,96853.59
2022-08-24T02:25:26.275Z,96846.94
2022-08-24T02:27:54.325Z,96840.28
2022-08-24T02:30:22.097Z,96828.44
2022-08-24T02:32:50.171Z,96826.00
2022-08-24T02:35:18.323Z,96830.50
2022-08-24T02:37:47.386Z,96805.69
2022-08-24T02:40:16.855Z,96808.59
2022-08-24T02:42:46.606Z,96791.56
2022-08-24T02:45:14.827Z,96790.75
2022-08-24T02:47:43.200Z,96790.13
2022-08-24T02:50:14.203Z,96790.25
2022-08-24T02:52:43.886Z,96777.63
2022-08-24T02:55:14.686Z,96757.31
2022-08-24T02:57:42.606Z,96753.28
2022-08-24T03:00:14.819Z,96746.63
2022-08-24T03:02:54.290Z,96744.34
2022-08-24T03:05:25.913Z,96731.72
2022-08-24T03:08:26.245Z,96721.63
2022-08-24T03:10:57.273Z,96712.56
2022-08-24T03:13:26.637Z,96696.34
2022-08-24T03:15:56.487Z,96683.88
2022-08-24T03:18:25.818Z,96671.19
2022-08-24T03:20:55.195Z,96666.53
2022-08-24T03:23:24.586Z,96646.91
2022-08-24T03:25:52.838Z,96647.03
2022-08-24T03:28:21.259Z,96644.63
2022-08-24T03:30:52.517Z,96641.41
2022-08-24T03:33:22.110Z,96639.78
2022-08-24T03:35:50.174Z,96632.97
2022-08-24T03:38:19.011Z,96631.31
2022-08-24T03:40:46.839Z,96636.69
2022-08-24T03:43:42.359Z,96625.66
2022-08-24T03:46:11.957Z,96617.38
2022-08-24T03:48:44.297Z,96597.16
2022-08-24T03:51:15.448Z,96581.09
2022-08-24T03:53:45.843Z,96570.41
2022-08-24T03:56:18.469Z,96556.94
2022-08-24T03:58:47.890Z,96548.69
2022-08-24T04:01:17.668Z,96537.03
2022-08-24T04:03:48.993Z,96527.00
2022-08-24T04:06:18.811Z,96515.16
2022-08-24T04:08:46.841Z,96507.72
2022-08-24T04:11:16.715Z,96496.69
2022-08-24T04:13:46.766Z,96496.03
2022-08-24T04:16:17.287Z,96486.00
2022-08-24T04:18:48.377Z,96488.78
2022-08-24T04:21:20.481Z,96477.72
2022-08-24T04:23:49.146Z,96479.66
2022-08-24T04:26:25.710Z,96471.88
2022-08-24T04:29:12.926Z,96472.88
2022-08-24T04:31:45.898Z,96481.31
2022-08-24T04:34:18.413Z,96479.03
2022-08-24T04:36:47.356Z,96468.81
2022-08-24T04:39:16.607Z,96466.41
2022-08-24T04:42:03.721Z,96463.16
2022-08-24T04:44:36.717Z,96458.78
2022-08-24T04:47:05.475Z,96455.53
2022-08-24T04:49:34.729Z,96452.16
2022-08-24T04:52:02.820Z,96451.50
2022-08-24T04:54:32.014Z,96455.72
2022-08-24T04:57:17.288Z,96454.09
2022-08-24T04:59:46.858Z,96450.69
2022-08-24T05:02:14.931Z,96458.47
2022-08-24T05:04:44.980Z,96461.22
2022-08-24T05:07:12.878Z,96455.22
2022-08-24T05:09:43.870Z,96458.63
2022-08-24T05:12:12.794Z,96461.22
2022-08-24T05:14:49.099Z,96466.25
2022-08-24T05:17:17.137Z,96474.84
2022-08-24T05:19:47.222Z,96478.25
2022-08-24T05:22:15.142Z,96478.25
2022-08-24T05:24:47.937Z,96492.66
2022-08-24T05:27:16.583Z,96506.91
2022-08-24T05:29:47.826Z,96511.94
2022-08-24T05:32:18.549Z,96538.22
2022-08-24T05:34:48.148Z,96562.03
2022-08-24T05:37:16.102Z,96582.91
2022-08-24T05:40:02.656Z,96604.13
2022-08-24T05:42:32.594Z,96620.03
2022-08-24T05:45:00.816Z,96645.50
2022-08-24T05:47:28.883Z,96662.31
2022-08-24T05:50:02.206Z,96695.25
2022-08-24T05:52:30.085Z,96714.53
2022-08-24T05:55:00.795Z,96749.41
2022-08-24T05:57:33.729Z,96769.53
2022-08-24T06:00:12.794Z,96798.25
2022-08-24T06:02:52.823Z,96823.53
2022-08-24T06:05:23.449Z,96849.66
2022-08-24T06:07:51.891Z,96870.59
2022-08-24T06:10:36.462Z,96908.91
2022-08-24T06:13:05.694Z,96940.25
2022-08-24T06:15:35.003Z,96968.03
2022-08-24T06:18:03.496Z,96996.75
2022-08-24T06:20:33.211Z,97022.13
2022-08-24T06:23:01.435Z,97039.69
2022-08-24T06:25:57.482Z,97084.00
2022-08-24T06:28:25.888Z,97111.84
2022-08-24T06:31:03.830Z,97143.16
2022-08-24T06:33:32.198Z,97170.97
2022-08-24T06:36:03.453Z,97203.16
2022-08-24T06:38:32.592Z,97239.44
2022-08-24T06:41:05.735Z,97281.91
2022-08-24T06:43:35.110Z,97307.28
2022-08-24T06:46:14.223Z,97347.13
2022-08-24T06:48:46.738Z,97375.78
2022-08-24T06:51:18.475Z,97421.66
2022-08-24T06:53:47.989Z,97470.84
2022-08-24T06:56:17.937Z,97509.78
2022-08-24T06:58:46.383Z,97538.63
2022-08-24T07:01:20.442Z,97573.31
2022-08-24T07:03:48.907Z,97615.72
2022-08-24T07:06:29.594Z,97655.47
2022-08-24T07:09:00.921Z,97702.41
2022-08-24T07:11:29.353Z,97744.66
2022-08-24T07:13:57.296Z,97786.41
2022-08-24T07:16:25.248Z,97826.84
2022-08-24T07:19:00.782Z,97888.19
2022-08-24T07:21:30.560Z,97931.50
2022-08-24T07:24:00.286Z,97978.19
2022-08-24T07:26:30.520Z,98015.41
2022-08-24T07:29:05.298Z,98055.59
2022-08-24T07:31:51.264Z,98104.63
2022-08-24T07:34:38.177Z,98169.34
2022-08-24T07:37:09.379Z,98233.91
2022-08-24T07:39:40.901Z,98298.81
2022-08-24T07:42:15.673Z,98361.69
2022-08-24T07:44:46.470Z,98411.94
2022-08-24T07:50:11.096Z,98540.47
2022-08-24T07:52:42.777Z,98618.97
2022-08-24T07:55:12.973Z,98694.81
2022-08-24T07:57:44.565Z,98776.84
2022-08-24T08:00:16.116Z,98836.56
2022-08-24T08:02:50.385Z,98899.72
2022-08-24T08:05:22.574Z,98955.19
2022-08-24T08:07:55.507Z,99010.69
2022-08-24T08:10:24.323Z,99074.72
2022-08-24T08:12:54.134Z,99138.84
2022-08-24T08:15:22.215Z,99195.22
2022-08-24T08:17:58.509Z,99272.31
2022-08-24T08:20:26.542Z,99340.75
2022-08-24T08:23:13.066Z,99419.53
2022-08-24T08:26:08.621Z,99509.44
2022-08-24T08:28:46.261Z,99568.41
2022-08-24T08:31:14.950Z,99654.25
2022-08-24T08:33:42.898Z,99733.03
2022-08-24T08:36:15.089Z,99816.31
2022-08-24T08:38:52.421Z,99908.44
2022-08-24T08:41:48.873Z,99986.38
2022-08-24T08:44:38.566Z,100079.03
2022-08-24T08:47:19.091Z,100147.78
2022-08-24T08:50:04.206Z,100212.25
2022-08-24T08:53:14.486Z,100268.94
2022-08-24T08:55:51.566Z,100337.75
2022-08-24T08:58:51.075Z,100403.22
2022-08-24T09:01:47.495Z,100463.47
2022-08-24T09:04:48.951Z,100518.59
2022-08-24T09:07:28.158Z,100570.25
2022-08-24T09:10:30.780Z,100642.63
2022-08-24T09:13:12.918Z,100698.63
2022-08-24T09:16:00.351Z,100771.06
2022-08-24T09:18:42.397Z,100852.16
2022-08-24T09:21:27.038Z,100912.41
2022-08-24T09:24:02.050Z,100985.00
2022-08-24T09:26:33.069Z,101058.41
2022-08-24T09:33:38.046Z,101188.69
2022-08-24T09:36:11.668Z,101236.19
2022-08-24T09:38:56.454Z,101282.91
2022-08-24T09:42:09.406Z,101325.16
2022-08-24T09:45:07.095Z,101371.06
2022-08-24T09:48:15.783Z,101416.81
2022-08-24T09:51:24.436Z,101460.09
2022-08-24T09:54:25.936Z,101520.66
2022-08-24T09:57:20.705Z,101566.44
2022-08-24T10:00:02.205Z,101616.63
2022-08-24T10:03:04.102Z,101676.28
2022-08-24T10:05:49.657Z,101723.94
2022-08-24T10:08:30.098Z,101783.72
2022-08-24T10:11:09.116Z,101821.78
2022-08-24T10:13:48.164Z,101847.81
2022-08-24T10:16:28.512Z,101886.84
2022-08-24T10:19:08.227Z,101911.78
2022-08-24T10:21:51.267Z,101946.59
2022-08-24T10:24:54.571Z,101968.03
2022-08-24T10:27:41.333Z,101990.69
2022-08-24T10:30:48.327Z,102000.94
2022-08-24T10:33:24.032Z,102028.53
2022-08-24T10:36:29.400Z,102061.47
2022-08-24T10:39:34.950Z,102103.16
2022-08-24T10:42:56.888Z,102168.19
2022-08-24T10:45:53.120Z,102225.38
2022-08-24T10:48:48.161Z,102274.75
2022-08-24T10:51:32.611Z,102330.28
2022-08-24T10:54:01.070Z,102374.66
2022-08-24T10:56:37.369Z,102411.22
2022-08-24T10:59:18.690Z,102443.25
2022-08-24T11:02:10.021Z,102471.88
2022-08-24T11:04:41.682Z,102501.34
2022-08-24T11:07:18.010Z,102534.34
2022-08-24T11:09:51.550Z,102558.66
2022-08-24T11:12:27.661Z,102580.31
2022-08-24T11:15:02.556Z,102604.63
2022-08-24T11:17:32.284Z,102637.63
2022-08-24T11:20:00.186Z,102662.06
2022-08-24T11:22:32.857Z,102691.59
2022-08-24T11:25:04.923Z,102691.34
2022-08-24T11:27:36.548Z,102708.78
2022-08-24T11:30:13.778Z,102725.25
2022-08-24T11:32:45.662Z,102751.28
2022-08-24T11:35:18.602Z,102793.97
2022-08-24T11:37:47.596Z,102822.69
2022-08-24T11:40:17.112Z,102842.56
2022-08-24T11:43:01.218Z,102860.84
2022-08-24T11:45:38.788Z,102851.06
2022-08-24T11:48:27.329Z,102845.75
2022-08-24T11:51:02.622Z,102856.88
2022-08-24T11:56:21.443Z,102942.25
2022-08-24T11:58:58.864Z,103008.56
2022-08-24T12:01:34.516Z,103061.66
2022-08-24T12:04:15.947Z,103111.34
2022-08-24T12:06:57.291Z,103123.50
2022-08-24T12:09:44.625Z,103131.25
2022-08-24T12:12:18.998Z,103138.81
2022-08-24T12:15:00.225Z,103123.88
2022-08-24T12:17:34.984Z,103158.91
2022-08-24T12:20:08.478Z,103169.03
2022-08-24T12:22:37.344Z,103200.47
2022-08-24T12:25:26.836Z,103246.69
2022-08-24T12:27:57.290Z,103242.22
2022-08-24T12:30:27.273Z,103212.38
2022-08-24T12:32:59.895Z,103224.53
2022-08-24T12:35:30.963Z,103213.88
2022-08-24T12:38:04.441Z,103213.88
2022-08-24T12:44:51.236Z,103283.44
2022-08-24T12:47:23.325Z,103330.53
2022-08-24T12:49:58.816Z,103397.00
2022-08-24T12:53:04.257Z,103463.41
2022-08-24T12:55:58.582Z,103540.19
2022-08-24T12:58:53.848Z,103594.44
2022-08-24T13:01:26.437Z,103582.91
2022-08-24T13:04:16.401Z,103502.09
2022-08-24T13:06:55.272Z,103493.38
2022-08-24T13:09:32.084Z,103522.16
2022-08-24T13:12:27.820Z,103527.19
2022-08-24T13:15:26.056Z,103597.09
2022-08-24T13:18:01.721Z,103628.59
2022-08-24T13:20:51.816Z,103693.16
2022-08-24T13:23:22.449Z,103787.84
2022-08-24T13:25:57.514Z,103836.78
2022-08-24T13:28:39.654Z,103894.50
2022-08-24T13:31:32.796Z,103990.13
2022-08-24T13:34:41.788Z,104027.81
2022-08-24T13:37:16.878Z,103990.69
2022-08-24T13:40:08.097Z,103954.63
2022-08-24T13:43:02.530Z,103924.44
2022-08-24T13:45:37.859Z,103934.09
2022-08-24T13:48:24.145Z,103989.28
2022-08-24T13:51:16.860Z,104057.50
2022-08-24T13:53:56.939Z,104115.41
2022-08-24T13:56:52.379Z,104169.84
2022-08-24T13:59:38.326Z,104238.16
2022-08-24T14:02:21.286Z,104305.75
2022-08-24T14:04:56.373Z,104341.66
2022-08-24T14:07:31.030Z,104360.97
2022-08-24T14:10:08.174Z,104401.34
2022-08-24T14:13:01.819Z,104454.84
2022-08-24T14:15:46.281Z,104536.59
2022-08-24T14:18:23.001Z,104571.59
2022-08-24T14:21:09.010Z,104589.94
2022-08-24T14:23:55.578Z,104634.88
2022-08-24T14:27:08.158Z,104609.91
2022-08-24T14:29:42.941Z,104610.66
2022-08-24T14:32:34.835Z,104623.75
2022-08-24T14:35:19.440Z,104598.75
2022-08-24T14:38:01.309Z,104593.38
2022-08-24T14:40:37.145Z,104462.88
2022-08-24T14:43:25.997Z,104394.09
2022-08-24T14:46:10.304Z,104393.13
2022-08-24T14:48:47.380Z,104370.09
2022-08-24T14:51:45.983Z,104356.69
2022-08-24T14:54:25.724Z,104345.13
2022-08-24T14:57:07.768Z,104382.75
2022-08-24T14:59:47.762Z,104390.59
2022-08-24T15:02:44.184Z,104400.88
2022-08-24T15:05:23.247Z,104343.59
2022-08-24T15:07:57.844Z,104251.22
2022-08-24T15:10:37.011Z,104257.22
2022-08-24T15:13:09.104Z,104162.09
2022-08-24T15:15:43.812Z,104087.25
2022-08-24T15:18:26.396Z,103868.53
2022-08-24T15:21:09.690Z,103699.16
2022-08-24T15:23:53.791Z,103538.69
2022-08-24T15:26:33.945Z,103363.34
2022-08-24T15:29:14.736Z,103225.13
2022-08-24T15:31:43.414Z,103172.41
2022-08-24T15:34:12.638Z,103224.88
2022-08-24T15:36:40.583Z,103293.81
2022-08-24T15:39:08.419Z,103327.88
2022-08-24T15:41:43.008Z,103365.41
2022-08-24T15:44:21.418Z,103406.47
2022-08-24T15:46:57.527Z,103459.84
2022-08-24T15:49:30.849Z,103468.47
2022-08-24T15:52:00.754Z,103431.66
2022-08-24T15:54:34.784Z,103295.00
2022-08-24T15:57:04.746Z,103162.03
2022-08-24T15:59:45.934Z,103088.47
2022-08-24T16:02:28.845Z,102995.78
2022-08-24T16:05:14.277Z,102876.13
2022-08-24T16:08:09.487Z,102775.66
2022-08-24T16:10:42.324Z,102669.34
2022-08-24T16:13:21.787Z,102549.00
2022-08-24T16:15:58.123Z,102465.19
2022-08-24T16:18:29.690Z,102385.84
2022-08-24T16:21:01.147Z,102331.09
2022-08-24T16:23:32.387Z,102256.97
2022-08-24T16:26:19.478Z,102208.44
2022-08-24T16:28:47.553Z,102159.50
2022-08-24T16:31:49.835Z,102090.81
2022-08-24T16:34:21.839Z,101997.72
2022-08-24T16:36:51.244Z,101942.13
2022-08-24T16:39:19.175Z,101891.00
2022-08-24T16:41:47.193Z,101832.78
2022-08-24T16:44:15.214Z,101787.56
2022-08-24T16:46:43.156Z,101747.78
2022-08-24T16:49:16.107Z,101710.44
2022-08-24T16:51:45.527Z,101672.94
2022-08-24T16:54:15.132Z,101653.91
2022-08-24T16:56:43.676Z,101629.72
2022-08-24T16:59:18.538Z,101601.06
2022-08-24T17:01:49.643Z,101578.56
2022-08-24T17:04:17.751Z,101544.72
2022-08-24T17:06:46.045Z,101508.38
2022-08-24T17:09:15.316Z,101476.22
2022-08-24T17:11:43.352Z,101439.78
2022-08-24T17:14:11.653Z,101398.13
2022-08-24T17:16:39.884Z,101371.44
2022-08-24T17:19:11.561Z,101329.69
2022-08-24T17:21:40.630Z,101310.72
2022-08-24T17:24:09.988Z,101290.06
2022-08-24T17:26:45.664Z,101258.78
2022-08-24T17:29:18.749Z,101238.94
2022-08-24T17:31:49.692Z,101199.88
2022-08-24T17:34:19.358Z,101181.19
2022-08-24T17:36:47.643Z,101135.16
2022-08-24T17:39:15.847Z,101103.22
2022-08-24T17:41:45.204Z,101053.84
2022-08-24T17:44:23.610Z,101018.44
2022-08-24T17:46:52.024Z,100989.03
2022-08-24T17:49:21.087Z,100964.88
2022-08-24T17:51:49.607Z,100939.09
2022-08-24T17:54:17.998Z,100901.06
2022-08-24T17:56:48.863Z,100851.63
2022-08-24T17:59:23.492Z,100817.22
2022-08-24T18:01:54.403Z,100779.38
2022-08-24T18:04:25.709Z,100757.78
2022-08-24T18:06:54.043Z,100729.38
2022-08-24T18:09:30.498Z,100682.75
2022-08-24T18:12:04.037Z,100657.00
2022-08-24T18:14:34.415Z,100625.16
2022-08-24T18:17:05.335Z,100588.84
2022-08-24T18:19:34.810Z,100559.50
2022-08-24T18:22:03.970Z,100542.41
2022-08-24T18:24:33.170Z,100518.22
2022-08-24T18:27:01.973Z,100491.50
2022-08-24T18:29:36.417Z,100450.94
2022-08-24T18:32:05.777Z,100427.69
2022-08-24T18:34:34.347Z,100401.16
2022-08-24T18:37:02.650Z,100369.19
2022-08-24T18:39:30.903Z,100340.03
2022-08-24T18:42:02.007Z,100310.06
2022-08-24T18:44:31.848Z,100273.81
2022-08-24T18:47:01.229Z,100243.69
2022-08-24T18:49:29.237Z,100216.22
2022-08-24T18:51:58.492Z,100191.22
2022-08-24T18:54:29.507Z,100163.75
2022-08-24T18:56:57.431Z,100140.69
2022-08-24T18:59:25.373Z,100113.22
2022-08-24T19:02:11.358Z,100070.91
2022-08-24T19:04:45.486Z,100030.56
2022-08-24T19:07:14.220Z,100000.66
2022-08-24T19:09:42.288Z,99959.31
2022-08-24T19:12:10.685Z,99910.25
2022-08-24T19:14:38.668Z,99887.28
2022-08-24T19:17:07.339Z,99852.06
2022-08-24T19:19:35.785Z,99813.44
2022-08-24T19:22:05.549Z,99777.56
2022-08-24T19:24:33.895Z,99740.75
2022-08-24T19:27:02.585Z,99687.44
2022-08-24T19:29:54.776Z,99655.91
2022-08-24T19:32:22.895Z,99606.25
2022-08-24T19:34:51.171Z,99568.59
2022-08-24T19:37:20.917Z,99525.72
2022-08-24T19:39:50.141Z,99487.16
2022-08-24T19:42:19.342Z,99461.59
2022-08-24T19:45:04.850Z,99427.31
2022-08-24T19:47:34.519Z,99393.19
2022-08-24T19:50:02.867Z,99359.91
2022-08-24T19:52:34.074Z,99334.22
2022-08-24T19:55:02.168Z,99310.34
2022-08-24T19:57:46.750Z,99287.25
2022-08-24T20:00:28.216Z,99253.00
2022-08-24T20:02:58.132Z,99225.66
2022-08-24T20:05:28.600Z,99206.22
2022-08-24T20:07:59.342Z,99186.47
2022-08-24T20:10:27.687Z,99176.28
2022-08-24T20:12:55.798Z,99159.97
2022-08-24T20:15:24.911Z,99141.25
2022-08-24T20:17:56.440Z,99107.97
2022-08-24T20:20:27.193Z,99089.38
2022-08-24T20:22:55.696Z,99067.19
2022-08-24T20:25:24.923Z,99039.06
2022-08-24T20:28:12.164Z,99001.41
2022-08-24T20:30:42.864Z,98961.25
2022-08-24T20:33:15.400Z,98935.78
2022-08-24T20:35:43.671Z,98905.06
2022-08-24T20:38:15.502Z,98888.94
2022-08-24T20:40:44.907Z,98859.03
2022-08-24T20:43:12.994Z,98830.94
2022-08-24T20:45:41.230Z,98794.34
2022-08-24T20:48:12.011Z,98772.16
2022-08-24T20:50:43.287Z,98744.09
2022-08-24T20:53:11.757Z,98719.47
2022-08-24T20:55:41.687Z,98698.25
2022-08-24T20:58:11.294Z,98671.81
2022-08-24T21:00:41.014Z,98629.34
2022-08-24T21:03:09.038Z,98608.97
2022-08-24T21:05:37.124Z,98584.22
2022-08-24T21:08:06.164Z,98580.94
2022-08-24T21:10:33.967Z,98569.09
2022-08-24T21:13:02.555Z,98545.03
2022-08-24T21:15:32.118Z,98531.56
2022-08-24T21:18:00.022Z,98517.16
2022-08-24T21:20:28.023Z,98494.19
2022-08-24T21:22:55.876Z,98475.81
2022-08-24T21:25:23.746Z,98436.50
2022-08-24T21:27:51.726Z,98406.66
2022-08-24T21:30:21.652Z,98382.88
2022-08-24T21:33:08.690Z,98369.44
2022-08-24T21:35:37.606Z,98346.50
2022-08-24T21:38:07.833Z,98343.22
2022-08-24T21:40:36.285Z,98323.56
2022-08-24T21:43:14.538Z,98319.47
2022-08-24T21:45:45.709Z,98312.59
2022-08-24T21:48:15.225Z,98288.03
2022-08-24T21:50:43.387Z,98273.63
2022-08-24T21:53:11.525Z,98250.03
2022-08-24T21:55:42.116Z,98235.63
2022-08-24T21:58:11.002Z,98227.28
2022-08-24T22:00:39.899Z,98211.91
2022-08-24T22:06:36.127Z,98204.34
2022-08-24T22:09:05.098Z,98201.91
2022-08-24T22:11:33.249Z,98188.50
2022-08-24T22:14:02.294Z,98175.56
2022-08-24T22:16:30.733Z,98174.91
2022-08-24T22:19:00.620Z,98158.84
2022-08-24T22:21:36.261Z,98152.16
2022-08-24T22:24:06.227Z,98133.66
2022-08-24T22:26:34.753Z,98117.44
2022-08-24T22:29:05.018Z,98091.94
2022-08-24T22:31:35.029Z,98076.72
2022-08-24T22:34:07.000Z,98070.00
2022-08-24T22:36:35.390Z,98058.06
2022-08-24T22:39:04.080Z,98043.69
2022-08-24T22:41:33.399Z,98027.81
2022-08-24T22:44:18.918Z,97999.88
2022-08-24T22:46:47.410Z,97983.66
2022-08-24T22:49:15.705Z,97988.06
2022-08-24T22:51:43.849Z,97988.91
2022-08-24T22:54:12.964Z,97975.34
2022-08-24T22:56:45.668Z,97964.41
2022-08-24T22:59:16.408Z,97940.72
2022-08-24T23:01:46.426Z,97913.41
2022-08-24T23:04:17.249Z,97900.34
2022-08-24T23:06:45.139Z,97869.47
2022-08-24T23:09:13.400Z,97844.16
2022-08-24T23:11:43.765Z,97823.25
2022-08-24T23:14:13.235Z,97802.97
2022-08-24T23:16:44.843Z,97788.59
2022-08-24T23:19:30.406Z,97766.56
2022-08-24T23:21:58.304Z,97754.78
2022-08-24T23:24:26.198Z,97740.44
2022-08-24T23:26:55.626Z,97726.88
2022-08-24T23:29:23.537Z,97702.25
2022-08-24T23:31:53.550Z,97692.47
2022-08-24T23:34:22.260Z,97660.16
2022-08-24T23:36:50.619Z,97641.56
2022-08-24T23:39:21.102Z,97619.53
2022-08-24T23:41:49.762Z,97608.63
2022-08-24T23:44:22.763Z,97597.84
2022-08-24T23:46:51.263Z,97576.50
2022-08-24T23:49:20.585Z,97579.25
2022-08-24T23:51:49.231Z,97569.97
2022-08-24T23:54:18.657Z,97561.63
2022-08-24T23:56:48.050Z,97547.31
2022-08-24T23:59:20.198Z,97529.53
